createdAt,value
2022-09-06T00:00:41.306Z,20.34
2022-09-06T00:01:42.813Z,20.30
2022-09-06T00:02:44.518Z,20.28
2022-09-06T00:03:46.355Z,20.23
2022-09-06T00:04:47.757Z,20.20
2022-09-06T00:05:49.486Z,20.17
2022-09-06T00:06:50.843Z,20.14
2022-09-06T00:07:52.183Z,20.13
2022-09-06T00:08:53.546Z,20.18
2022-09-06T00:09:54.883Z,20.22
2022-09-06T00:11:00.380Z,20.18
2022-09-06T00:12:02.620Z,20.18
2022-09-06T00:13:05.186Z,20.17
2022-09-06T00:14:06.608Z,20.19
2022-09-06T00:15:08.163Z,20.19
2022-09-06T00:16:11.360Z,20.22
2022-09-06T00:17:13.860Z,20.22
2022-09-06T00:18:15.210Z,20.17
2022-09-06T00:19:16.565Z,20.17
2022-09-06T00:20:17.969Z,20.14
2022-09-06T00:21:19.275Z,20.16
2022-09-06T00:22:20.624Z,20.15
2022-09-06T00:23:21.983Z,20.13
2022-09-06T00:24:23.387Z,20.10
2022-09-06T00:25:24.835Z,20.07
2022-09-06T00:26:26.188Z,20.04
2022-09-06T00:27:27.531Z,20.04
2022-09-06T00:28:28.877Z,20.09
2022-09-06T00:29:30.255Z,20.07
2022-09-06T00:30:32.364Z,20.07
2022-09-06T00:31:33.752Z,20.10
2022-09-06T00:32:35.137Z,20.10
2022-09-06T00:33:36.569Z,20.08
2022-09-06T00:34:37.919Z,20.04
2022-09-06T00:35:39.244Z,19.99
2022-09-06T00:36:40.591Z,19.96
2022-09-06T00:37:41.959Z,19.96
2022-09-06T00:38:43.521Z,20.02
2022-09-06T00:39:44.896Z,20.08
2022-09-06T00:40:46.259Z,20.16
2022-09-06T00:41:47.632Z,20.11
2022-09-06T00:42:49.097Z,20.04
2022-09-06T00:43:50.428Z,20.02
2022-09-06T00:44:51.808Z,19.98
2022-09-06T00:45:53.731Z,19.93
2022-09-06T00:46:55.265Z,19.92
2022-09-06T00:47:58.400Z,19.88
2022-09-06T00:49:23.019Z,19.87
2022-09-06T00:50:24.495Z,19.90
2022-09-06T00:51:28.347Z,19.90
2022-09-06T00:52:30.246Z,19.87
2022-09-06T00:53:32.394Z,19.83
2022-09-06T00:54:33.920Z,19.85
2022-09-06T00:55:35.419Z,19.86
2022-09-06T00:56:40.528Z,19.86
2022-09-06T00:57:42.112Z,19.80
2022-09-06T00:58:43.660Z,19.73
2022-09-06T00:59:45.842Z,19.67
2022-09-06T01:00:47.224Z,19.65
2022-09-06T01:01:48.713Z,19.62
2022-09-06T01:02:50.356Z,19.57
2022-09-06T01:03:51.832Z,19.55
2022-09-06T01:04:53.827Z,19.53
2022-09-06T01:06:11.840Z,19.50
2022-09-06T01:07:31.620Z,19.45
2022-09-06T01:08:39.912Z,19.42
2022-09-06T01:09:56.120Z,19.48
2022-09-06T01:11:08.275Z,19.56
2022-09-06T01:12:21.734Z,19.59
2022-09-06T01:13:41.792Z,19.59
2022-09-06T01:14:49.195Z,19.62
2022-09-06T01:15:50.585Z,19.62
2022-09-06T01:16:54.718Z,19.60
2022-09-06T01:17:58.899Z,19.61
2022-09-06T01:19:00.207Z,19.55
2022-09-06T01:20:04.172Z,19.50
2022-09-06T01:21:14.868Z,19.49
2022-09-06T01:22:44.414Z,19.50
2022-09-06T01:23:45.759Z,19.48
2022-09-06T01:24:49.836Z,19.45
2022-09-06T01:25:54.060Z,19.41
2022-09-06T01:27:24.595Z,19.45
2022-09-06T01:28:31.907Z,19.49
2022-09-06T01:29:39.342Z,19.44
2022-09-06T01:30:43.956Z,19.41
2022-09-06T01:31:48.238Z,19.38
2022-09-06T01:32:49.591Z,19.42
2022-09-06T01:33:53.542Z,19.49
2022-09-06T01:35:07.159Z,19.49
2022-09-06T01:36:11.935Z,19.48
2022-09-06T01:37:15.860Z,19.47
2022-09-06T01:38:17.390Z,19.44
2022-09-06T01:39:27.233Z,19.43
2022-09-06T01:40:28.779Z,19.40
2022-09-06T01:41:30.777Z,19.38
2022-09-06T01:42:33.009Z,19.43
2022-09-06T01:43:39.393Z,19.45
2022-09-06T01:44:43.659Z,19.45
2022-09-06T01:45:53.691Z,19.45
2022-09-06T01:47:04.673Z,19.41
2022-09-06T01:48:28.880Z,19.34
2022-09-06T01:49:36.410Z,19.36
2022-09-06T01:50:56.618Z,19.36
2022-09-06T01:51:57.968Z,19.31
2022-09-06T01:53:01.955Z,19.29
2022-09-06T01:54:21.411Z,19.28
2022-09-06T01:55:35.135Z,19.29
2022-09-06T01:56:48.267Z,19.36
2022-09-06T01:58:08.428Z,19.33
2022-09-06T01:59:28.513Z,19.30
2022-09-06T02:00:31.991Z,19.40
2022-09-06T02:01:51.977Z,19.39
2022-09-06T02:03:05.513Z,19.40
2022-09-06T02:04:18.557Z,19.38
2022-09-06T02:05:26.080Z,19.33
2022-09-06T02:06:29.834Z,19.31
2022-09-06T02:07:31.936Z,19.26
2022-09-06T02:08:36.802Z,19.24
2022-09-06T02:09:40.208Z,19.24
2022-09-06T02:10:47.909Z,19.21
2022-09-06T02:11:51.897Z,19.24
2022-09-06T02:12:54.303Z,19.21
2022-09-06T02:13:58.644Z,19.19
2022-09-06T02:15:02.400Z,19.26
2022-09-06T02:16:05.443Z,19.24
2022-09-06T02:17:09.708Z,19.28
2022-09-06T02:18:21.722Z,19.30
2022-09-06T02:19:32.776Z,19.31
2022-09-06T02:20:36.005Z,19.31
2022-09-06T02:21:39.964Z,19.33
2022-09-06T02:22:43.617Z,19.37
2022-09-06T02:23:46.537Z,19.39
2022-09-06T02:24:50.019Z,19.42
2022-09-06T02:25:54.068Z,19.48
2022-09-06T02:26:55.591Z,19.49
2022-09-06T02:27:57.027Z,19.57
2022-09-06T02:28:58.484Z,19.64
2022-09-06T02:29:59.832Z,19.65
2022-09-06T02:31:03.724Z,19.73
2022-09-06T02:32:10.996Z,19.71
2022-09-06T02:33:19.867Z,19.69
2022-09-06T02:34:21.742Z,19.60
2022-09-06T02:35:23.149Z,19.44
2022-09-06T02:36:24.848Z,19.26
2022-09-06T02:37:26.980Z,19.15
2022-09-06T02:38:28.409Z,19.10
2022-09-06T02:39:29.852Z,19.03
2022-09-06T02:40:31.258Z,19.06
2022-09-06T02:41:33.235Z,19.07
2022-09-06T02:42:34.861Z,19.02
2022-09-06T02:43:36.255Z,18.96
2022-09-06T02:44:37.664Z,18.92
2022-09-06T02:45:39.038Z,18.88
2022-09-06T02:46:40.607Z,18.84
2022-09-06T02:47:42.011Z,18.81
2022-09-06T02:48:43.335Z,18.79
2022-09-06T02:49:44.685Z,18.72
2022-09-06T02:50:46.013Z,18.72
2022-09-06T02:51:47.364Z,18.68
2022-09-06T02:53:00.723Z,18.63
2022-09-06T02:54:02.079Z,18.66
2022-09-06T02:55:03.591Z,18.65
2022-09-06T02:56:05.083Z,18.64
2022-09-06T02:57:06.452Z,18.63
2022-09-06T02:58:09.023Z,18.61
2022-09-06T02:59:10.404Z,18.56
2022-09-06T03:00:12.016Z,18.52
2022-09-06T03:01:13.391Z,18.49
2022-09-06T03:02:14.913Z,18.48
2022-09-06T03:03:16.315Z,18.50
2022-09-06T03:04:17.678Z,18.49
2022-09-06T03:05:19.228Z,18.49
2022-09-06T03:06:20.608Z,18.52
2022-09-06T03:07:22.119Z,18.49
2022-09-06T03:08:24.786Z,18.43
2022-09-06T03:09:26.363Z,18.39
2022-09-06T03:10:27.800Z,18.37
2022-09-06T03:11:29.172Z,18.36
2022-09-06T03:12:30.509Z,18.36
2022-09-06T03:13:31.829Z,18.36
2022-09-06T03:14:33.155Z,18.37
2022-09-06T03:15:34.513Z,18.35
2022-09-06T03:16:35.905Z,18.35
2022-09-06T03:17:37.399Z,18.36
2022-09-06T03:18:38.742Z,18.36
2022-09-06T03:19:40.074Z,18.34
2022-09-06T03:20:41.447Z,18.35
2022-09-06T03:21:42.789Z,18.36
2022-09-06T03:22:44.118Z,18.35
2022-09-06T03:23:45.498Z,18.35
2022-09-06T03:24:46.858Z,18.35
2022-09-06T03:25:48.187Z,18.36
2022-09-06T03:26:49.603Z,18.37
2022-09-06T03:27:50.978Z,18.37
2022-09-06T03:28:52.328Z,18.37
2022-09-06T03:29:53.682Z,18.38
2022-09-06T03:30:55.074Z,18.35
2022-09-06T03:31:56.466Z,18.34
2022-09-06T03:33:00.819Z,18.30
2022-09-06T03:34:05.344Z,18.28
2022-09-06T03:35:09.711Z,18.33
2022-09-06T03:36:11.082Z,18.33
2022-09-06T03:37:12.411Z,18.35
2022-09-06T03:38:13.734Z,18.35
2022-09-06T03:39:15.112Z,18.32
2022-09-06T03:40:16.635Z,18.30
2022-09-06T03:41:17.987Z,18.26
2022-09-06T03:42:19.338Z,18.24
2022-09-06T03:43:21.295Z,18.22
2022-09-06T03:44:22.639Z,18.23
2022-09-06T03:45:23.974Z,18.23
2022-09-06T03:46:25.360Z,18.22
2022-09-06T03:47:26.747Z,18.20
2022-09-06T03:48:29.014Z,18.18
2022-09-06T03:49:30.459Z,18.18
2022-09-06T03:50:31.831Z,18.18
2022-09-06T03:51:33.172Z,18.18
2022-09-06T03:52:34.678Z,18.16
2022-09-06T03:53:36.028Z,18.14
2022-09-06T03:54:37.381Z,18.13
2022-09-06T03:55:39.180Z,18.11
2022-09-06T03:56:40.545Z,18.11
2022-09-06T03:57:41.939Z,18.09
2022-09-06T03:58:43.297Z,18.09
2022-09-06T03:59:44.643Z,18.09
2022-09-06T04:00:46.033Z,18.08
2022-09-06T04:01:47.396Z,18.07
2022-09-06T04:02:48.728Z,18.08
2022-09-06T04:03:50.160Z,18.17
2022-09-06T04:04:51.490Z,18.17
2022-09-06T04:05:52.863Z,18.17
2022-09-06T04:06:54.196Z,18.15
2022-09-06T04:07:55.563Z,18.14
2022-09-06T04:08:57.015Z,18.13
2022-09-06T04:09:58.338Z,18.08
2022-09-06T04:11:00.100Z,18.08
2022-09-06T04:12:01.524Z,18.13
2022-09-06T04:13:02.860Z,18.12
2022-09-06T04:14:04.210Z,18.13
2022-09-06T04:15:05.892Z,18.11
2022-09-06T04:16:07.382Z,18.10
2022-09-06T04:17:08.737Z,18.09
2022-09-06T04:18:10.087Z,18.11
2022-09-06T04:19:11.470Z,18.15
2022-09-06T04:20:13.602Z,18.17
2022-09-06T04:21:14.944Z,18.18
2022-09-06T04:22:16.300Z,18.17
2022-09-06T04:23:18.256Z,18.18
2022-09-06T04:24:19.608Z,18.20
2022-09-06T04:25:20.964Z,18.23
2022-09-06T04:26:22.548Z,18.22
2022-09-06T04:27:23.932Z,18.23
2022-09-06T04:28:25.446Z,18.24
2022-09-06T04:29:26.828Z,18.33
2022-09-06T04:30:28.284Z,18.32
2022-09-06T04:31:29.705Z,18.35
2022-09-06T04:32:31.105Z,18.34
2022-09-06T04:33:33.871Z,18.35
2022-09-06T04:34:35.203Z,18.34
2022-09-06T04:35:37.192Z,18.32
2022-09-06T04:36:38.571Z,18.35
2022-09-06T04:37:40.116Z,18.37
2022-09-06T04:38:42.546Z,18.43
2022-09-06T04:39:44.262Z,18.47
2022-09-06T04:40:45.743Z,18.50
2022-09-06T04:41:47.156Z,18.55
2022-09-06T04:42:48.479Z,18.54
2022-09-06T04:43:49.836Z,18.56
2022-09-06T04:44:51.160Z,18.57
2022-09-06T04:45:52.569Z,18.55
2022-09-06T04:47:07.413Z,18.54
2022-09-06T04:48:11.063Z,18.53
2022-09-06T04:49:12.408Z,18.51
2022-09-06T04:50:13.795Z,18.51
2022-09-06T04:51:15.228Z,18.54
2022-09-06T04:52:16.650Z,18.53
2022-09-06T04:53:17.994Z,18.52
2022-09-06T04:54:19.336Z,18.52
2022-09-06T04:55:20.687Z,18.51
2022-09-06T04:56:23.045Z,18.48
2022-09-06T04:57:24.411Z,18.44
2022-09-06T04:58:25.787Z,18.41
2022-09-06T04:59:27.203Z,18.39
2022-09-06T05:00:29.476Z,18.36
2022-09-06T05:01:30.855Z,18.35
2022-09-06T05:02:32.310Z,18.34
2022-09-06T05:03:33.704Z,18.33
2022-09-06T05:04:35.069Z,18.35
2022-09-06T05:05:36.414Z,18.35
2022-09-06T05:06:37.760Z,18.33
2022-09-06T05:07:39.107Z,18.32
2022-09-06T05:08:41.131Z,18.31
2022-09-06T05:09:42.467Z,18.32
2022-09-06T05:10:43.808Z,18.33
2022-09-06T05:11:46.122Z,18.35
2022-09-06T05:12:48.315Z,18.37
2022-09-06T05:13:49.638Z,18.37
2022-09-06T05:14:50.979Z,18.40
2022-09-06T05:15:52.331Z,18.41
2022-09-06T05:16:53.797Z,18.46
2022-09-06T05:18:01.515Z,18.45
2022-09-06T05:19:02.862Z,18.42
2022-09-06T05:20:04.321Z,18.42
2022-09-06T05:21:05.801Z,18.41
2022-09-06T05:22:07.164Z,18.43
2022-09-06T05:23:08.543Z,18.47
2022-09-06T05:24:09.859Z,18.51
2022-09-06T05:25:11.216Z,18.55
2022-09-06T05:26:12.543Z,18.58
2022-09-06T05:27:14.009Z,18.57
2022-09-06T05:28:15.635Z,18.58
2022-09-06T05:29:16.979Z,18.56
2022-09-06T05:30:18.368Z,18.58
2022-09-06T05:31:29.940Z,18.57
2022-09-06T05:32:31.338Z,18.54
2022-09-06T05:33:32.780Z,18.58
2022-09-06T05:34:34.164Z,18.57
2022-09-06T05:35:35.553Z,18.56
2022-09-06T05:36:36.911Z,18.58
2022-09-06T05:37:38.279Z,18.56
2022-09-06T05:38:39.601Z,18.57
2022-09-06T05:39:41.025Z,18.57
2022-09-06T05:40:42.420Z,18.57
2022-09-06T05:41:43.777Z,18.55
2022-09-06T05:42:45.152Z,18.55
2022-09-06T05:43:46.566Z,18.58
2022-09-06T05:44:47.902Z,18.59
2022-09-06T05:45:49.346Z,18.59
2022-09-06T05:46:50.795Z,18.56
2022-09-06T05:47:52.142Z,18.66
2022-09-06T05:48:57.502Z,18.62
2022-09-06T05:49:58.823Z,18.60
2022-09-06T05:51:01.275Z,18.62
2022-09-06T05:52:02.723Z,18.64
2022-09-06T05:53:04.085Z,18.63
2022-09-06T05:54:05.869Z,18.64
2022-09-06T05:55:07.459Z,18.61
2022-09-06T05:56:09.355Z,18.58
2022-09-06T05:57:10.723Z,18.59
2022-09-06T05:58:12.043Z,18.56
2022-09-06T05:59:13.463Z,18.57
2022-09-06T06:00:14.886Z,18.56
2022-09-06T06:01:20.658Z,18.57
2022-09-06T06:02:22.726Z,18.64
2022-09-06T06:03:24.111Z,18.64
2022-09-06T06:04:25.497Z,18.69
2022-09-06T06:05:26.841Z,18.70
2022-09-06T06:06:29.274Z,18.74
2022-09-06T06:07:30.622Z,18.77
2022-09-06T06:08:31.992Z,18.77
2022-09-06T06:09:33.334Z,18.76
2022-09-06T06:10:38.439Z,18.76
2022-09-06T06:11:40.213Z,18.76
2022-09-06T06:12:41.615Z,18.72
2022-09-06T06:13:43.018Z,18.72
2022-09-06T06:14:44.344Z,18.75
2022-09-06T06:15:45.728Z,18.71
2022-09-06T06:16:47.123Z,18.71
2022-09-06T06:17:48.531Z,18.73
2022-09-06T06:18:52.183Z,18.73
2022-09-06T06:19:53.990Z,18.76
2022-09-06T06:21:07.163Z,18.79
2022-09-06T06:22:08.508Z,18.79
2022-09-06T06:23:09.856Z,18.79
2022-09-06T06:24:11.267Z,18.82
2022-09-06T06:25:12.764Z,18.88
2022-09-06T06:26:14.335Z,18.94
2022-09-06T06:27:15.675Z,18.97
2022-09-06T06:28:16.996Z,18.99
2022-09-06T06:29:18.351Z,19.04
2022-09-06T06:30:19.686Z,19.09
2022-09-06T06:31:21.289Z,19.15
2022-09-06T06:32:22.707Z,19.21
2022-09-06T06:33:24.050Z,19.30
2022-09-06T06:34:25.399Z,19.39
2022-09-06T06:35:26.748Z,19.45
2022-09-06T06:36:28.636Z,19.51
2022-09-06T06:37:32.564Z,19.63
2022-09-06T06:38:35.774Z,19.69
2022-09-06T06:39:37.193Z,19.78
2022-09-06T06:40:38.595Z,19.86
2022-09-06T06:41:39.948Z,19.98
2022-09-06T06:43:00.086Z,20.10
2022-09-06T06:44:02.736Z,20.17
2022-09-06T06:45:04.335Z,20.19
2022-09-06T06:46:09.790Z,20.27
2022-09-06T06:47:11.179Z,20.37
2022-09-06T06:48:12.506Z,20.41
2022-09-06T06:49:13.871Z,20.46
2022-09-06T06:50:15.254Z,20.58
2022-09-06T06:51:19.060Z,20.67
2022-09-06T06:52:20.381Z,20.69
2022-09-06T06:53:21.735Z,20.68
2022-09-06T06:54:23.083Z,20.70
2022-09-06T06:55:24.561Z,20.79
2022-09-06T06:56:30.011Z,20.91
2022-09-06T06:57:31.358Z,21.03
2022-09-06T06:58:32.684Z,21.16
2022-09-06T06:59:34.010Z,21.19
2022-09-06T07:00:35.388Z,21.32
2022-09-06T07:01:37.139Z,21.35
2022-09-06T07:02:38.561Z,21.37
2022-09-06T07:03:39.951Z,21.40
2022-09-06T07:04:41.287Z,21.53
2022-09-06T07:08:25.374Z,21.71
2022-09-06T07:09:26.765Z,21.73
2022-09-06T07:10:35.338Z,21.69
2022-09-06T07:11:36.722Z,21.71
2022-09-06T07:12:38.068Z,21.64
2022-09-06T07:13:39.411Z,21.61
2022-09-06T07:14:40.741Z,21.56
2022-09-06T07:15:42.094Z,21.58
2022-09-06T07:16:43.651Z,21.49
2022-09-06T07:17:45.083Z,21.47
2022-09-06T07:18:46.724Z,21.48
2022-09-06T07:22:31.569Z,21.40
2022-09-06T07:24:54.221Z,21.41
2022-09-06T07:25:55.571Z,21.46
2022-09-06T07:28:18.251Z,21.43
2022-09-06T07:29:19.602Z,21.36
2022-09-06T07:30:21.118Z,21.38
2022-09-06T07:32:43.924Z,21.33
2022-09-06T07:33:45.278Z,21.35
2022-09-06T07:34:46.647Z,21.34
2022-09-06T07:35:55.416Z,21.33
2022-09-06T07:36:56.799Z,21.33
2022-09-06T07:37:59.220Z,21.34
2022-09-06T07:39:00.603Z,21.32
2022-09-06T07:40:02.613Z,21.38
2022-09-06T07:41:08.639Z,21.44
2022-09-06T07:42:09.994Z,21.49
2022-09-06T07:43:11.341Z,21.57
2022-09-06T07:44:12.684Z,21.56
2022-09-06T07:45:14.075Z,21.52
2022-09-06T07:46:16.648Z,21.52
2022-09-06T07:48:40.365Z,21.70
2022-09-06T07:51:23.343Z,21.79
2022-09-06T07:54:07.128Z,21.89
2022-09-06T07:55:14.300Z,21.94
2022-09-06T07:56:15.927Z,21.99
2022-09-06T07:57:17.282Z,22.03
2022-09-06T07:58:18.624Z,22.05
2022-09-06T07:59:19.964Z,22.09
2022-09-06T08:00:21.368Z,22.18
2022-09-06T08:01:36.023Z,22.23
2022-09-06T08:02:37.490Z,22.17
2022-09-06T08:03:38.831Z,22.17
2022-09-06T08:04:40.180Z,22.21
2022-09-06T08:09:45.555Z,22.40
2022-09-06T08:10:50.125Z,22.45
2022-09-06T08:11:51.483Z,22.49
2022-09-06T08:12:53.219Z,22.48
2022-09-06T08:13:55.054Z,22.49
2022-09-06T08:14:56.487Z,22.53
2022-09-06T08:16:01.352Z,22.54
2022-09-06T08:17:03.470Z,22.63
2022-09-06T08:18:04.931Z,22.64
2022-09-06T08:19:07.040Z,22.65
2022-09-06T08:20:08.568Z,22.72
2022-09-06T08:21:12.905Z,22.81
2022-09-06T08:22:14.490Z,22.87
2022-09-06T08:23:15.857Z,22.94
2022-09-06T08:24:17.189Z,22.96
2022-09-06T08:25:18.528Z,22.94
2022-09-06T08:26:21.590Z,22.96
2022-09-06T08:27:22.917Z,23.04
2022-09-06T08:28:28.583Z,23.08
2022-09-06T08:29:33.271Z,23.10
2022-09-06T08:30:34.648Z,23.11
2022-09-06T08:31:37.492Z,23.12
2022-09-06T08:32:38.867Z,23.13
2022-09-06T08:33:40.642Z,23.10
2022-09-06T08:34:41.989Z,23.14
2022-09-06T08:35:43.363Z,23.15
2022-09-06T08:36:44.733Z,23.16
2022-09-06T08:37:46.086Z,23.21
2022-09-06T08:38:47.506Z,23.25
2022-09-06T08:39:48.875Z,23.28
2022-09-06T08:40:51.379Z,23.25
2022-09-06T08:41:57.618Z,23.24
2022-09-06T08:42:58.981Z,23.23
2022-09-06T08:45:24.785Z,23.45
2022-09-06T08:46:32.996Z,23.43
2022-09-06T08:47:35.228Z,23.45
2022-09-06T08:48:42.233Z,23.49
2022-09-06T08:49:44.748Z,23.54
2022-09-06T08:50:53.672Z,23.64
2022-09-06T08:52:01.011Z,23.73
2022-09-06T08:53:16.791Z,23.85
2022-09-06T08:54:24.888Z,23.96
2022-09-06T08:55:37.112Z,24.06
2022-09-06T08:56:41.685Z,24.17
2022-09-06T08:58:01.058Z,24.23
2022-09-06T08:59:07.045Z,24.37
2022-09-06T09:00:11.040Z,24.39
2022-09-06T09:01:16.590Z,24.43
2022-09-06T09:02:20.218Z,24.49
2022-09-06T09:03:24.958Z,24.60
2022-09-06T09:04:27.625Z,24.66
2022-09-06T09:05:31.200Z,24.83
2022-09-06T09:06:33.208Z,24.93
2022-09-06T09:07:37.233Z,25.05
2022-09-06T09:08:55.892Z,25.21
2022-09-06T09:09:58.226Z,25.34
2022-09-06T09:11:04.116Z,25.50
2022-09-06T09:12:06.283Z,25.65
2022-09-06T09:13:09.168Z,25.74
2022-09-06T09:14:28.930Z,25.83
2022-09-06T09:15:30.376Z,25.92
2022-09-06T09:16:32.384Z,25.92
2022-09-06T09:17:35.913Z,25.98
2022-09-06T09:18:39.829Z,26.01
2022-09-06T09:19:41.639Z,26.02
2022-09-06T09:20:43.044Z,25.92
2022-09-06T09:21:44.961Z,25.91
2022-09-06T09:22:46.614Z,25.83
2022-09-06T09:23:52.940Z,25.85
2022-09-06T09:24:57.635Z,25.85
2022-09-06T09:26:02.097Z,25.84
2022-09-06T09:27:10.952Z,25.81
2022-09-06T09:28:19.428Z,25.82
2022-09-06T09:29:26.780Z,25.79
2022-09-06T09:30:48.349Z,25.81
2022-09-06T09:31:53.618Z,25.92
2022-09-06T09:32:55.507Z,25.90
2022-09-06T09:33:56.940Z,25.94
2022-09-06T09:35:16.815Z,25.94
2022-09-06T09:36:21.188Z,25.94
2022-09-06T09:38:49.045Z,26.07
2022-09-06T09:39:52.770Z,26.15
2022-09-06T09:41:01.626Z,26.25
2022-09-06T09:42:03.048Z,26.34
2022-09-06T09:43:13.107Z,26.42
2022-09-06T09:44:18.560Z,26.51
2022-09-06T09:45:19.856Z,26.58
2022-09-06T09:46:23.887Z,26.63
2022-09-06T09:47:26.513Z,26.70
2022-09-06T09:48:28.058Z,26.72
2022-09-06T09:49:29.758Z,26.76
2022-09-06T09:50:32.437Z,26.77
2022-09-06T09:51:47.330Z,26.81
2022-09-06T09:52:48.672Z,26.89
2022-09-06T09:53:54.444Z,26.98
2022-09-06T09:54:56.935Z,27.02
2022-09-06T09:55:58.924Z,27.05
2022-09-06T09:57:00.317Z,27.10
2022-09-06T09:58:01.744Z,27.06
2022-09-06T09:59:06.312Z,27.13
2022-09-06T10:00:08.055Z,27.08
2022-09-06T10:01:11.457Z,27.05
2022-09-06T10:02:22.045Z,27.05
2022-09-06T10:03:28.070Z,26.97
2022-09-06T10:04:44.507Z,26.94
2022-09-06T10:06:05.035Z,26.96
2022-09-06T10:07:26.770Z,27.01
2022-09-06T10:08:30.802Z,27.06
2022-09-06T10:09:36.871Z,27.09
2022-09-06T10:10:42.445Z,27.12
2022-09-06T10:11:53.524Z,27.13
2022-09-06T10:13:06.881Z,27.15
2022-09-06T10:14:23.332Z,27.19
2022-09-06T10:15:39.538Z,27.29
2022-09-06T10:16:42.180Z,27.33
2022-09-06T10:17:50.856Z,27.36
2022-09-06T10:18:55.400Z,27.43
2022-09-06T10:20:03.636Z,27.43
2022-09-06T10:21:15.330Z,27.51
2022-09-06T10:22:22.825Z,27.56
2022-09-06T10:25:23.072Z,27.66
2022-09-06T10:26:49.068Z,27.76
2022-09-06T10:28:12.041Z,27.87
2022-09-06T10:29:13.708Z,27.89
2022-09-06T10:30:15.154Z,27.86
2022-09-06T10:31:28.919Z,27.91
2022-09-06T10:32:48.213Z,27.97
2022-09-06T10:33:49.739Z,28.06
2022-09-06T10:35:09.453Z,28.09
2022-09-06T10:36:10.789Z,28.03
2022-09-06T10:37:12.119Z,28.05
2022-09-06T10:38:31.993Z,28.05
2022-09-06T10:39:52.171Z,28.00
2022-09-06T10:41:30.872Z,28.00
2022-09-06T10:42:35.312Z,28.11
2022-09-06T10:43:54.241Z,28.11
2022-09-06T10:45:16.568Z,28.16
2022-09-06T10:46:18.916Z,28.23
2022-09-06T10:47:21.673Z,28.29
2022-09-06T10:48:29.524Z,28.36
2022-09-06T10:49:32.986Z,28.36
2022-09-06T10:50:37.475Z,28.40
2022-09-06T10:51:41.813Z,28.39
2022-09-06T10:52:44.873Z,28.45
2022-09-06T10:53:55.284Z,28.54
2022-09-06T10:54:58.216Z,28.71
2022-09-06T10:56:07.447Z,28.57
2022-09-06T11:00:05.518Z,28.43
2022-09-06T11:01:07.465Z,28.40
2022-09-06T11:02:29.213Z,28.42
2022-09-06T11:06:16.436Z,28.57
2022-09-06T11:07:29.907Z,28.58
2022-09-06T11:08:48.149Z,28.77
2022-09-06T11:09:53.183Z,28.89
2022-09-06T11:10:54.979Z,28.99
2022-09-06T11:12:34.826Z,29.04
2022-09-06T11:13:36.164Z,29.04
2022-09-06T11:14:38.413Z,29.04
2022-09-06T11:15:48.491Z,29.09
2022-09-06T11:16:56.639Z,29.21
2022-09-06T11:18:04.129Z,29.32
2022-09-06T11:19:15.748Z,29.24
2022-09-06T11:20:23.012Z,29.29
2022-09-06T11:21:44.305Z,29.28
2022-09-06T11:22:45.628Z,29.30
2022-09-06T11:23:46.954Z,29.34
2022-09-06T11:25:00.180Z,29.26
2022-09-06T11:26:21.782Z,29.30
2022-09-06T11:27:33.336Z,29.35
2022-09-06T11:28:34.809Z,29.40
2022-09-06T11:29:39.807Z,29.38
2022-09-06T11:30:45.817Z,29.43
2022-09-06T11:32:19.066Z,29.46
2022-09-06T11:33:28.400Z,29.51
2022-09-06T11:34:29.784Z,29.43
2022-09-06T11:35:32.302Z,29.47
2022-09-06T11:36:38.142Z,29.50
2022-09-06T11:37:43.132Z,29.45
2022-09-06T11:38:53.323Z,29.33
2022-09-06T11:40:28.474Z,29.25
2022-09-06T11:41:31.778Z,29.27
2022-09-06T11:43:02.112Z,29.23
2022-09-06T11:44:04.277Z,29.33
2022-09-06T11:45:05.575Z,29.35
2022-09-06T11:46:06.931Z,29.32
2022-09-06T11:47:08.352Z,29.30
2022-09-06T11:48:24.616Z,29.17
2022-09-06T11:49:30.983Z,29.12
2022-09-06T11:51:04.805Z,29.01
2022-09-06T11:52:28.166Z,28.89
2022-09-06T11:53:30.839Z,28.88
2022-09-06T11:54:41.196Z,28.90
2022-09-06T11:55:47.711Z,28.91
2022-09-06T11:57:18.169Z,28.87
2022-09-06T11:58:25.647Z,28.81
2022-09-06T11:59:35.639Z,28.85
2022-09-06T12:00:36.987Z,28.85
2022-09-06T12:01:39.348Z,28.90
2022-09-06T12:02:41.550Z,28.95
2022-09-06T12:05:04.284Z,29.02
2022-09-06T12:06:22.265Z,28.98
2022-09-06T12:07:23.573Z,29.06
2022-09-06T12:08:31.770Z,29.00
2022-09-06T12:09:37.007Z,28.92
2022-09-06T12:10:41.124Z,28.86
2022-09-06T12:11:45.812Z,28.83
2022-09-06T12:12:50.600Z,28.83
2022-09-06T12:13:56.111Z,28.73
2022-09-06T12:14:57.499Z,28.68
2022-09-06T12:15:59.642Z,28.56
2022-09-06T12:17:01.048Z,28.55
2022-09-06T12:18:02.407Z,28.49
2022-09-06T12:19:03.779Z,28.36
2022-09-06T12:20:05.410Z,28.32
2022-09-06T12:21:06.879Z,28.31
2022-09-06T12:22:26.641Z,28.26
2022-09-06T12:23:36.840Z,28.24
2022-09-06T12:24:38.171Z,28.22
2022-09-06T12:25:39.508Z,28.21
2022-09-06T12:26:55.291Z,28.18
2022-09-06T12:27:58.593Z,28.17
2022-09-06T12:29:00.004Z,28.12
2022-09-06T12:30:12.157Z,28.10
2022-09-06T12:31:22.362Z,28.08
2022-09-06T12:32:28.326Z,28.07
2022-09-06T12:33:36.660Z,27.97
2022-09-06T12:34:38.156Z,27.90
2022-09-06T12:37:03.555Z,27.86
2022-09-06T12:38:06.351Z,27.86
2022-09-06T12:39:11.217Z,27.86
2022-09-06T12:40:12.919Z,27.86
2022-09-06T12:41:14.420Z,27.84
2022-09-06T12:42:18.153Z,27.83
2022-09-06T12:43:19.783Z,27.79
2022-09-06T12:44:30.246Z,27.75
2022-09-06T12:45:31.788Z,27.76
2022-09-06T12:46:34.165Z,27.75
2022-09-06T12:47:37.158Z,27.75
2022-09-06T12:48:38.504Z,27.75
2022-09-06T12:49:39.953Z,27.75
2022-09-06T12:50:41.291Z,27.70
2022-09-06T12:51:45.435Z,27.73
2022-09-06T12:52:54.459Z,27.71
2022-09-06T12:54:03.247Z,27.68
2022-09-06T12:55:13.651Z,27.64
2022-09-06T12:56:19.375Z,27.58
2022-09-06T12:57:22.409Z,27.62
2022-09-06T12:58:27.941Z,27.59
2022-09-06T12:59:32.186Z,27.57
2022-09-06T13:00:35.278Z,27.57
2022-09-06T13:01:37.060Z,27.61
2022-09-06T13:02:41.353Z,27.70
2022-09-06T13:03:52.845Z,27.81
2022-09-06T13:05:00.214Z,27.97
2022-09-06T13:06:03.867Z,28.08
2022-09-06T13:07:08.916Z,28.14
2022-09-06T13:08:15.017Z,28.23
2022-09-06T13:09:18.777Z,28.28
2022-09-06T13:10:23.252Z,28.23
2022-09-06T13:11:30.215Z,28.19
2022-09-06T13:12:36.389Z,28.20
2022-09-06T13:13:46.423Z,28.17
2022-09-06T13:14:51.843Z,28.08
2022-09-06T13:15:53.470Z,28.01
2022-09-06T13:16:55.336Z,28.00
2022-09-06T13:18:15.379Z,27.96
2022-09-06T13:19:18.367Z,27.94
2022-09-06T13:20:22.816Z,27.91
2022-09-06T13:21:29.264Z,27.95
2022-09-06T13:22:37.904Z,27.90
2022-09-06T13:23:43.368Z,27.97
2022-09-06T13:24:47.255Z,27.96
2022-09-06T13:25:50.162Z,27.96
2022-09-06T13:26:51.932Z,27.98
2022-09-06T13:27:54.898Z,27.99
2022-09-06T13:28:56.272Z,28.02
2022-09-06T13:29:58.595Z,28.01
2022-09-06T13:31:08.811Z,28.04
2022-09-06T13:32:13.123Z,28.05
2022-09-06T13:33:24.473Z,27.99
2022-09-06T13:34:30.315Z,27.97
2022-09-06T13:35:33.904Z,27.95
2022-09-06T13:36:35.542Z,27.90
2022-09-06T13:37:36.853Z,27.88
2022-09-06T13:38:38.165Z,27.86
2022-09-06T13:39:40.821Z,27.82
2022-09-06T13:41:13.489Z,27.82
2022-09-06T13:42:09.105Z,27.79
2022-09-06T13:43:13.747Z,27.81
2022-09-06T13:44:15.144Z,27.81
2022-09-06T13:45:21.919Z,27.77
2022-09-06T13:46:23.285Z,27.76
2022-09-06T13:47:31.472Z,27.72
2022-09-06T13:48:33.244Z,27.74
2022-09-06T13:49:34.587Z,27.75
2022-09-06T13:50:36.275Z,27.73
2022-09-06T13:51:38.556Z,27.76
2022-09-06T13:52:39.891Z,27.74
2022-09-06T13:53:41.268Z,27.74
2022-09-06T13:54:42.615Z,27.78
2022-09-06T13:55:43.963Z,27.79
2022-09-06T13:56:45.472Z,27.76
2022-09-06T13:57:46.826Z,27.79
2022-09-06T13:58:48.181Z,27.79
2022-09-06T13:59:49.509Z,27.82
2022-09-06T14:00:51.170Z,27.85
2022-09-06T14:02:12.617Z,27.84
2022-09-06T14:03:40.379Z,27.86
2022-09-06T14:04:44.486Z,27.75
2022-09-06T14:05:45.859Z,27.71
2022-09-06T14:06:47.820Z,27.69
2022-09-06T14:07:49.200Z,27.58
2022-09-06T14:09:06.446Z,27.57
2022-09-06T14:10:09.247Z,27.59
2022-09-06T14:11:10.639Z,27.60
2022-09-06T14:12:12.007Z,27.60
2022-09-06T14:13:13.923Z,27.59
2022-09-06T14:14:15.862Z,27.57
2022-09-06T14:15:17.232Z,27.58
2022-09-06T14:16:18.752Z,27.47
2022-09-06T14:17:20.271Z,27.38
2022-09-06T14:18:21.703Z,27.27
2022-09-06T14:19:23.277Z,27.28
2022-09-06T14:20:24.671Z,27.25
2022-09-06T14:21:26.123Z,27.22